sensor_id;sensor_type;location;lat;lon;timestamp;P1;durP1;ratioP1;P2;durP2;ratioP2
71464;SDS011;59274;49.874;9.154;2023-08-06T00:02:03;8.50;;;4.20;;
71464;SDS011;59274;49.874;9.154;2023-08-06T00:04:28;7.27;;;4.20;;
71464;SDS011;59274;49.874;9.154;2023-08-06T00:06:54;7.03;;;4.20;;
71464;SDS011;59274;49.874;9.154;2023-08-06T00:09:19;10.32;;;4.55;;
71464;SDS011;59274;49.874;9.154;2023-08-06T00:11:44;9.80;;;4.40;;
71464;SDS011;59274;49.874;9.154;2023-08-06T00:14:12;10.85;;;4.53;;
71464;SDS011;59274;49.874;9.154;2023-08-06T00:16:40;8.93;;;4.43;;
71464;SDS011;59274;49.874;9.154;2023-08-06T00:19:07;8.50;;;4.40;;
71464;SDS011;59274;49.874;9.154;2023-08-06T00:21:33;8.17;;;4.53;;
71464;SDS011;59274;49.874;9.154;2023-08-06T00:23:58;10.48;;;5.38;;
71464;SDS011;59274;49.874;9.154;2023-08-06T00:26:24;10.30;;;5.07;;
71464;SDS011;59274;49.874;9.154;2023-08-06T00:28:49;10.50;;;5.23;;
71464;SDS011;59274;49.874;9.154;2023-08-06T00:31:15;9.23;;;5.20;;
71464;SDS011;59274;49.874;9.154;2023-08-06T00:33:40;9.70;;;4.90;;
71464;SDS011;59274;49.874;9.154;2023-08-06T00:36:05;8.63;;;5.03;;
71464;SDS011;59274;49.874;9.154;2023-08-06T00:38:31;9.17;;;4.87;;
71464;SDS011;59274;49.874;9.154;2023-08-06T00:40:56;8.27;;;4.60;;
71464;SDS011;59274;49.874;9.154;2023-08-06T00:43:22;11.18;;;5.25;;
71464;SDS011;59274;49.874;9.154;2023-08-06T00:45:47;10.37;;;5.17;;
71464;SDS011;59274;49.874;9.154;2023-08-06T00:48:13;8.43;;;4.83;;
71464;SDS011;59274;49.874;9.154;2023-08-06T00:50:39;9.07;;;4.80;;
71464;SDS011;59274;49.874;9.154;2023-08-06T00:53:05;9.25;;;4.50;;
71464;SDS011;59274;49.874;9.154;2023-08-06T00:55:30;8.30;;;4.53;;
71464;SDS011;59274;49.874;9.154;2023-08-06T00:57:56;7.53;;;4.47;;
71464;SDS011;59274;49.874;9.154;2023-08-06T01:00:22;9.13;;;4.93;;
71464;SDS011;59274;49.874;9.154;2023-08-06T01:02:49;8.65;;;4.80;;
71464;SDS011;59274;49.874;9.154;2023-08-06T01:05:14;11.27;;;5.63;;
71464;SDS011;59274;49.874;9.154;2023-08-06T01:16:11;8.73;;;4.88;;
71464;SDS011;59274;49.874;9.154;2023-08-06T01:18:40;9.63;;;5.07;;
71464;SDS011;59274;49.874;9.154;2023-08-06T01:21:08;11.47;;;5.40;;
71464;SDS011;59274;49.874;9.154;2023-08-06T01:23:33;9.00;;;4.93;;
71464;SDS011;59274;49.874;9.154;2023-08-06T01:26:10;8.57;;;4.60;;
71464;SDS011;59274;49.874;9.154;2023-08-06T01:31:30;8.18;;;4.70;;
71464;SDS011;59274;49.874;9.154;2023-08-06T01:33:58;8.27;;;4.27;;
71464;SDS011;59274;49.874;9.154;2023-08-06T01:36:24;8.63;;;4.70;;
71464;SDS011;59274;49.874;9.154;2023-08-06T01:38:54;8.05;;;4.15;;
71464;SDS011;59274;49.874;9.154;2023-08-06T01:41:20;7.60;;;4.00;;
71464;SDS011;59274;49.874;9.154;2023-08-06T01:43:45;11.37;;;3.87;;
71464;SDS011;59274;49.874;9.154;2023-08-06T01:46:11;8.00;;;3.83;;
71464;SDS011;59274;49.874;9.154;2023-08-06T01:48:36;8.33;;;4.00;;
71464;SDS011;59274;49.874;9.154;2023-08-06T01:51:05;7.55;;;4.00;;
71464;SDS011;59274;49.874;9.154;2023-08-06T01:53:30;8.00;;;3.70;;
71464;SDS011;59274;49.874;9.154;2023-08-06T01:55:56;7.03;;;4.20;;
71464;SDS011;59274;49.874;9.154;2023-08-06T01:58:22;9.07;;;4.45;;
71464;SDS011;59274;49.874;9.154;2023-08-06T02:00:48;7.20;;;4.25;;
71464;SDS011;59274;49.874;9.154;2023-08-06T02:03:13;10.23;;;4.60;;
71464;SDS011;59274;49.874;9.154;2023-08-06T02:05:38;7.57;;;4.40;;
71464;SDS011;59274;49.874;9.154;2023-08-06T02:08:05;8.35;;;4.70;;
71464;SDS011;59274;49.874;9.154;2023-08-06T02:10:30;8.43;;;3.77;;
71464;SDS011;59274;49.874;9.154;2023-08-06T02:12:55;8.27;;;4.10;;
71464;SDS011;59274;49.874;9.154;2023-08-06T02:15:21;8.45;;;4.00;;
71464;SDS011;59274;49.874;9.154;2023-08-06T02:17:46;8.07;;;3.87;;
71464;SDS011;59274;49.874;9.154;2023-08-06T02:20:12;7.63;;;3.83;;
71464;SDS011;59274;49.874;9.154;2023-08-06T02:22:37;9.93;;;4.53;;
71464;SDS011;59274;49.874;9.154;2023-08-06T02:25:02;8.03;;;4.30;;
71464;SDS011;59274;49.874;9.154;2023-08-06T02:27:28;8.48;;;4.00;;
71464;SDS011;59274;49.874;9.154;2023-08-06T02:29:53;8.47;;;4.50;;
71464;SDS011;59274;49.874;9.154;2023-08-06T02:32:19;8.47;;;4.37;;
71464;SDS011;59274;49.874;9.154;2023-08-06T02:34:44;9.40;;;4.40;;
71464;SDS011;59274;49.874;9.154;2023-08-06T02:37:10;10.13;;;4.50;;
71464;SDS011;59274;49.874;9.154;2023-08-06T02:39:35;8.83;;;4.30;;
71464;SDS011;59274;49.874;9.154;2023-08-06T02:42:06;7.85;;;4.13;;
71464;SDS011;59274;49.874;9.154;2023-08-06T02:44:32;9.40;;;4.40;;
71464;SDS011;59274;49.874;9.154;2023-08-06T02:46:58;11.43;;;4.30;;
71464;SDS011;59274;49.874;9.154;2023-08-06T02:49:24;7.18;;;4.15;;
71464;SDS011;59274;49.874;9.154;2023-08-06T02:51:49;8.30;;;4.33;;
71464;SDS011;59274;49.874;9.154;2023-08-06T02:54:15;9.63;;;3.97;;
71464;SDS011;59274;49.874;9.154;2023-08-06T02:56:42;8.10;;;4.10;;
71464;SDS011;59274;49.874;9.154;2023-08-06T02:59:09;10.98;;;3.78;;
71464;SDS011;59274;49.874;9.154;2023-08-06T03:01:35;8.23;;;3.77;;
71464;SDS011;59274;49.874;9.154;2023-08-06T03:04:01;6.63;;;3.60;;
71464;SDS011;59274;49.874;9.154;2023-08-06T03:06:27;8.93;;;3.70;;
71464;SDS011;59274;49.874;9.154;2023-08-06T03:08:52;7.17;;;3.73;;
71464;SDS011;59274;49.874;9.154;2023-08-06T03:11:17;7.03;;;4.10;;
71464;SDS011;59274;49.874;9.154;2023-08-06T03:13:43;7.27;;;4.13;;
71464;SDS011;59274;49.874;9.154;2023-08-06T03:16:08;7.67;;;4.10;;
71464;SDS011;59274;49.874;9.154;2023-08-06T03:18:33;11.38;;;4.25;;
71464;SDS011;59274;49.874;9.154;2023-08-06T03:20:59;7.87;;;4.13;;
71464;SDS011;59274;49.874;9.154;2023-08-06T03:23:24;8.70;;;4.40;;
71464;SDS011;59274;49.874;9.154;2023-08-06T03:25:50;8.53;;;4.40;;
71464;SDS011;59274;49.874;9.154;2023-08-06T03:28:15;8.27;;;4.53;;
71464;SDS011;59274;49.874;9.154;2023-08-06T03:30:41;7.65;;;4.00;;
71464;SDS011;59274;49.874;9.154;2023-08-06T03:33:06;8.87;;;3.93;;
71464;SDS011;59274;49.874;9.154;2023-08-06T03:35:32;9.55;;;4.15;;
71464;SDS011;59274;49.874;9.154;2023-08-06T03:37:57;8.13;;;3.97;;
71464;SDS011;59274;49.874;9.154;2023-08-06T03:40:23;11.80;;;4.50;;
71464;SDS011;59274;49.874;9.154;2023-08-06T03:42:48;7.83;;;3.73;;
71464;SDS011;59274;49.874;9.154;2023-08-06T03:45:13;8.33;;;4.00;;
71464;SDS011;59274;49.874;9.154;2023-08-06T03:47:39;8.25;;;4.03;;
71464;SDS011;59274;49.874;9.154;2023-08-06T03:50:04;7.90;;;4.00;;
71464;SDS011;59274;49.874;9.154;2023-08-06T03:52:30;7.78;;;4.10;;
71464;SDS011;59274;49.874;9.154;2023-08-06T03:54:56;10.97;;;4.97;;
71464;SDS011;59274;49.874;9.154;2023-08-06T03:57:21;8.73;;;4.37;;
71464;SDS011;59274;49.874;9.154;2023-08-06T03:59:47;9.13;;;4.20;;
71464;SDS011;59274;49.874;9.154;2023-08-06T04:02:12;10.13;;;4.77;;
71464;SDS011;59274;49.874;9.154;2023-08-06T04:04:37;7.50;;;4.43;;
71464;SDS011;59274;49.874;9.154;2023-08-06T04:07:03;9.50;;;4.37;;
71464;SDS011;59274;49.874;9.154;2023-08-06T04:09:29;7.23;;;3.77;;
71464;SDS011;59274;49.874;9.154;2023-08-06T04:11:54;6.80;;;3.65;;
71464;SDS011;59274;49.874;9.154;2023-08-06T04:14:21;7.27;;;3.90;;
71464;SDS011;59274;49.874;9.154;2023-08-06T04:16:46;7.00;;;3.40;;
71464;SDS011;59274;49.874;9.154;2023-08-06T04:19:12;8.27;;;3.88;;
71464;SDS011;59274;49.874;9.154;2023-08-06T04:21:37;8.17;;;3.50;;
71464;SDS011;59274;49.874;9.154;2023-08-06T04:24:03;6.93;;;4.00;;
71464;SDS011;59274;49.874;9.154;2023-08-06T04:26:28;8.50;;;3.47;;
71464;SDS011;59274;49.874;9.154;2023-08-06T04:28:54;8.15;;;3.88;;
71464;SDS011;59274;49.874;9.154;2023-08-06T04:31:19;7.27;;;3.83;;
71464;SDS011;59274;49.874;9.154;2023-08-06T04:33:45;7.73;;;3.87;;
71464;SDS011;59274;49.874;9.154;2023-08-06T04:36:11;8.13;;;3.40;;
71464;SDS011;59274;49.874;9.154;2023-08-06T04:38:36;8.13;;;3.53;;
71464;SDS011;59274;49.874;9.154;2023-08-06T04:41:03;7.55;;;3.63;;
71464;SDS011;59274;49.874;9.154;2023-08-06T04:43:29;6.40;;;3.63;;
71464;SDS011;59274;49.874;9.154;2023-08-06T04:45:54;8.77;;;3.75;;
71464;SDS011;59274;49.874;9.154;2023-08-06T04:48:20;7.57;;;3.90;;
71464;SDS011;59274;49.874;9.154;2023-08-06T04:50:46;9.13;;;4.40;;
71464;SDS011;59274;49.874;9.154;2023-08-06T04:53:13;7.57;;;4.13;;
71464;SDS011;59274;49.874;9.154;2023-08-06T04:55:38;7.23;;;3.70;;
71464;SDS011;59274;49.874;9.154;2023-08-06T04:58:04;10.60;;;3.83;;
71464;SDS011;59274;49.874;9.154;2023-08-06T05:00:30;8.73;;;4.05;;
71464;SDS011;59274;49.874;9.154;2023-08-06T05:02:55;6.60;;;3.97;;
71464;SDS011;59274;49.874;9.154;2023-08-06T05:05:21;6.53;;;3.33;;
71464;SDS011;59274;49.874;9.154;2023-08-06T05:07:49;6.83;;;3.20;;
71464;SDS011;59274;49.874;9.154;2023-08-06T05:10:15;7.07;;;3.40;;
71464;SDS011;59274;49.874;9.154;2023-08-06T05:12:41;7.37;;;3.20;;
71464;SDS011;59274;49.874;9.154;2023-08-06T05:15:07;13.35;;;3.38;;
71464;SDS011;59274;49.874;9.154;2023-08-06T05:17:32;7.13;;;3.43;;
71464;SDS011;59274;49.874;9.154;2023-08-06T05:19:59;7.45;;;3.30;;
71464;SDS011;59274;49.874;9.154;2023-08-06T05:22:24;6.10;;;3.20;;
71464;SDS011;59274;49.874;9.154;2023-08-06T05:24:49;8.27;;;3.33;;
71464;SDS011;59274;49.874;9.154;2023-08-06T05:27:15;8.20;;;3.70;;
71464;SDS011;59274;49.874;9.154;2023-08-06T05:29:41;8.63;;;3.40;;
71464;SDS011;59274;49.874;9.154;2023-08-06T05:32:06;8.15;;;3.20;;
71464;SDS011;59274;49.874;9.154;2023-08-06T05:34:32;6.97;;;2.43;;
71464;SDS011;59274;49.874;9.154;2023-08-06T05:36:57;7.03;;;2.50;;
71464;SDS011;59274;49.874;9.154;2023-08-06T05:39:23;5.63;;;2.42;;
71464;SDS011;59274;49.874;9.154;2023-08-06T05:41:48;5.77;;;2.30;;
71464;SDS011;59274;49.874;9.154;2023-08-06T05:44:15;4.82;;;2.30;;
71464;SDS011;59274;49.874;9.154;2023-08-06T05:46:40;5.70;;;2.30;;
71464;SDS011;59274;49.874;9.154;2023-08-06T05:49:06;4.47;;;2.10;;
71464;SDS011;59274;49.874;9.154;2023-08-06T05:51:31;4.63;;;2.10;;
71464;SDS011;59274;49.874;9.154;2023-08-06T05:53:57;4.35;;;1.98;;
71464;SDS011;59274;49.874;9.154;2023-08-06T05:56:22;4.83;;;1.87;;
71464;SDS011;59274;49.874;9.154;2023-08-06T05:58:47;6.50;;;1.90;;
71464;SDS011;59274;49.874;9.154;2023-08-06T06:01:15;3.72;;;1.60;;
71464;SDS011;59274;49.874;9.154;2023-08-06T06:03:41;4.43;;;1.77;;
71464;SDS011;59274;49.874;9.154;2023-08-06T06:06:06;5.63;;;1.83;;
71464;SDS011;59274;49.874;9.154;2023-08-06T06:08:31;5.13;;;1.60;;
71464;SDS011;59274;49.874;9.154;2023-08-06T06:10:58;5.47;;;1.67;;
71464;SDS011;59274;49.874;9.154;2023-08-06T06:13:24;3.90;;;1.65;;
71464;SDS011;59274;49.874;9.154;2023-08-06T06:15:49;3.00;;;1.47;;
71464;SDS011;59274;49.874;9.154;2023-08-06T06:18:15;3.57;;;1.67;;
71464;SDS011;59274;49.874;9.154;2023-08-06T06:20:40;6.43;;;1.57;;
71464;SDS011;59274;49.874;9.154;2023-08-06T06:23:05;2.63;;;1.50;;
71464;SDS011;59274;49.874;9.154;2023-08-06T06:25:31;3.92;;;1.50;;
71464;SDS011;59274;49.874;9.154;2023-08-06T06:27:56;3.58;;;1.35;;
71464;SDS011;59274;49.874;9.154;2023-08-06T06:30:23;4.30;;;1.40;;
71464;SDS011;59274;49.874;9.154;2023-08-06T06:32:49;4.70;;;1.63;;
71464;SDS011;59274;49.874;9.154;2023-08-06T06:35:14;3.93;;;1.40;;
71464;SDS011;59274;49.874;9.154;2023-08-06T06:37:39;3.30;;;1.40;;
71464;SDS011;59274;49.874;9.154;2023-08-06T06:40:05;2.97;;;1.60;;
71464;SDS011;59274;49.874;9.154;2023-08-06T06:42:31;2.95;;;1.25;;
71464;SDS011;59274;49.874;9.154;2023-08-06T06:44:56;5.10;;;1.30;;
71464;SDS011;59274;49.874;9.154;2023-08-06T06:47:22;1.73;;;1.00;;
71464;SDS011;59274;49.874;9.154;2023-08-06T06:49:47;2.77;;;1.17;;
71464;SDS011;59274;49.874;9.154;2023-08-06T06:52:12;2.90;;;1.20;;
71464;SDS011;59274;49.874;9.154;2023-08-06T06:54:38;2.60;;;1.40;;
71464;SDS011;59274;49.874;9.154;2023-08-06T06:57:04;5.13;;;1.35;;
71464;SDS011;59274;49.874;9.154;2023-08-06T06:59:29;2.13;;;1.03;;
71464;SDS011;59274;49.874;9.154;2023-08-06T07:01:55;3.15;;;1.15;;
71464;SDS011;59274;49.874;9.154;2023-08-06T07:04:20;1.57;;;1.10;;
71464;SDS011;59274;49.874;9.154;2023-08-06T07:06:46;3.03;;;1.47;;
71464;SDS011;59274;49.874;9.154;2023-08-06T07:09:12;7.00;;;2.00;;
71464;SDS011;59274;49.874;9.154;2023-08-06T07:11:37;4.40;;;1.60;;
71464;SDS011;59274;49.874;9.154;2023-08-06T07:14:03;3.43;;;1.27;;
71464;SDS011;59274;49.874;9.154;2023-08-06T07:16:28;1.60;;;0.87;;
71464;SDS011;59274;49.874;9.154;2023-08-06T07:18:54;2.55;;;1.05;;
71464;SDS011;59274;49.874;9.154;2023-08-06T07:21:20;2.07;;;1.00;;
71464;SDS011;59274;49.874;9.154;2023-08-06T07:23:45;1.30;;;0.75;;
71464;SDS011;59274;49.874;9.154;2023-08-06T07:26:11;1.37;;;0.80;;
71464;SDS011;59274;49.874;9.154;2023-08-06T07:28:36;0.98;;;0.80;;
71464;SDS011;59274;49.874;9.154;2023-08-06T07:31:02;1.95;;;0.95;;
71464;SDS011;59274;49.874;9.154;2023-08-06T07:33:28;1.25;;;0.80;;
71464;SDS011;59274;49.874;9.154;2023-08-06T07:35:54;1.35;;;0.90;;
71464;SDS011;59274;49.874;9.154;2023-08-06T07:38:19;2.10;;;1.00;;
71464;SDS011;59274;49.874;9.154;2023-08-06T07:40:45;1.35;;;0.93;;
71464;SDS011;59274;49.874;9.154;2023-08-06T07:43:10;2.30;;;1.00;;
71464;SDS011;59274;49.874;9.154;2023-08-06T07:45:36;1.43;;;0.80;;
71464;SDS011;59274;49.874;9.154;2023-08-06T07:48:02;1.80;;;0.90;;
71464;SDS011;59274;49.874;9.154;2023-08-06T07:50:28;1.83;;;0.95;;
71464;SDS011;59274;49.874;9.154;2023-08-06T07:52:54;1.97;;;0.87;;
71464;SDS011;59274;49.874;9.154;2023-08-06T07:55:20;2.45;;;0.90;;
71464;SDS011;59274;49.874;9.154;2023-08-06T07:57:46;1.07;;;0.87;;
71464;SDS011;59274;49.874;9.154;2023-08-06T08:00:11;1.33;;;0.82;;
71464;SDS011;59274;49.874;9.154;2023-08-06T08:02:37;1.73;;;0.83;;
71464;SDS011;59274;49.874;9.154;2023-08-06T08:05:02;1.25;;;0.88;;
71464;SDS011;59274;49.874;9.154;2023-08-06T08:07:28;2.27;;;0.87;;
71464;SDS011;59274;49.874;9.154;2023-08-06T08:09:55;1.42;;;0.90;;
71464;SDS011;59274;49.874;9.154;2023-08-06T08:12:21;2.28;;;1.00;;
71464;SDS011;59274;49.874;9.154;2023-08-06T08:14:47;2.87;;;1.00;;
71464;SDS011;59274;49.874;9.154;2023-08-06T08:17:12;2.67;;;1.00;;
71464;SDS011;59274;49.874;9.154;2023-08-06T08:19:38;1.77;;;0.95;;
71464;SDS011;59274;49.874;9.154;2023-08-06T08:22:03;1.80;;;0.87;;
71464;SDS011;59274;49.874;9.154;2023-08-06T08:24:29;1.93;;;0.93;;
71464;SDS011;59274;49.874;9.154;2023-08-06T08:26:55;1.35;;;0.77;;
71464;SDS011;59274;49.874;9.154;2023-08-06T08:29:21;1.52;;;0.80;;
71464;SDS011;59274;49.874;9.154;2023-08-06T08:31:48;1.57;;;0.80;;
71464;SDS011;59274;49.874;9.154;2023-08-06T08:34:16;1.10;;;0.82;;
71464;SDS011;59274;49.874;9.154;2023-08-06T08:36:42;0.90;;;0.80;;
71464;SDS011;59274;49.874;9.154;2023-08-06T08:39:08;2.60;;;0.80;;
71464;SDS011;59274;49.874;9.154;2023-08-06T08:41:33;1.47;;;0.90;;
71464;SDS011;59274;49.874;9.154;2023-08-06T08:44:01;1.52;;;0.90;;
71464;SDS011;59274;49.874;9.154;2023-08-06T08:46:29;1.00;;;0.90;;
71464;SDS011;59274;49.874;9.154;2023-08-06T08:48:57;2.30;;;1.00;;
71464;SDS011;59274;49.874;9.154;2023-08-06T08:51:25;2.05;;;0.80;;
71464;SDS011;59274;49.874;9.154;2023-08-06T08:53:53;1.30;;;0.80;;
71464;SDS011;59274;49.874;9.154;2023-08-06T08:56:22;1.02;;;0.82;;
71464;SDS011;59274;49.874;9.154;2023-08-06T08:58:48;1.10;;;0.80;;
71464;SDS011;59274;49.874;9.154;2023-08-06T09:01:14;1.88;;;0.98;;
71464;SDS011;59274;49.874;9.154;2023-08-06T09:03:41;1.73;;;0.87;;
71464;SDS011;59274;49.874;9.154;2023-08-06T09:06:08;1.88;;;0.98;;
71464;SDS011;59274;49.874;9.154;2023-08-06T09:08:37;1.10;;;0.90;;
71464;SDS011;59274;49.874;9.154;2023-08-06T09:11:08;1.20;;;0.90;;
71464;SDS011;59274;49.874;9.154;2023-08-06T09:13:35;1.38;;;0.90;;
71464;SDS011;59274;49.874;9.154;2023-08-06T09:16:11;1.40;;;1.00;;
71464;SDS011;59274;49.874;9.154;2023-08-06T09:19:06;2.00;;;0.93;;
71464;SDS011;59274;49.874;9.154;2023-08-06T09:21:38;3.17;;;1.00;;
71464;SDS011;59274;49.874;9.154;2023-08-06T09:24:08;3.33;;;0.98;;
71464;SDS011;59274;49.874;9.154;2023-08-06T09:26:37;2.20;;;0.82;;
71464;SDS011;59274;49.874;9.154;2023-08-06T09:29:07;2.80;;;0.90;;
71464;SDS011;59274;49.874;9.154;2023-08-06T09:31:43;0.85;;;0.70;;
71464;SDS011;59274;49.874;9.154;2023-08-06T09:34:15;2.40;;;1.23;;
71464;SDS011;59274;49.874;9.154;2023-08-06T09:36:42;1.40;;;0.93;;
71464;SDS011;59274;49.874;9.154;2023-08-06T09:39:14;1.48;;;1.10;;
71464;SDS011;59274;49.874;9.154;2023-08-06T09:41:41;1.27;;;0.90;;
71464;SDS011;59274;49.874;9.154;2023-08-06T09:44:17;1.75;;;1.00;;
71464;SDS011;59274;49.874;9.154;2023-08-06T09:46:47;2.35;;;1.02;;
71464;SDS011;59274;49.874;9.154;2023-08-06T09:49:20;1.60;;;1.02;;
71464;SDS011;59274;49.874;9.154;2023-08-06T09:51:50;1.35;;;1.00;;
71464;SDS011;59274;49.874;9.154;2023-08-06T09:54:17;1.80;;;1.10;;
71464;SDS011;59274;49.874;9.154;2023-08-06T09:56:44;1.15;;;1.00;;
71464;SDS011;59274;49.874;9.154;2023-08-06T09:59:09;2.80;;;1.10;;
71464;SDS011;59274;49.874;9.154;2023-08-06T10:01:36;2.33;;;1.08;;
71464;SDS011;59274;49.874;9.154;2023-08-06T10:04:03;1.92;;;0.80;;
71464;SDS011;59274;49.874;9.154;2023-08-06T10:06:29;2.70;;;1.10;;
71464;SDS011;59274;49.874;9.154;2023-08-06T10:08:56;1.15;;;0.90;;
71464;SDS011;59274;49.874;9.154;2023-08-06T10:11:23;4.15;;;1.02;;
71464;SDS011;59274;49.874;9.154;2023-08-06T10:13:53;2.35;;;1.20;;
71464;SDS011;59274;49.874;9.154;2023-08-06T10:16:22;1.70;;;1.10;;
71464;SDS011;59274;49.874;9.154;2023-08-06T10:18:48;1.75;;;1.00;;
71464;SDS011;59274;49.874;9.154;2023-08-06T10:21:16;1.17;;;1.00;;
71464;SDS011;59274;49.874;9.154;2023-08-06T10:23:52;1.47;;;1.00;;
71464;SDS011;59274;49.874;9.154;2023-08-06T10:26:45;2.65;;;1.00;;
71464;SDS011;59274;49.874;9.154;2023-08-06T10:29:37;2.40;;;0.90;;
71464;SDS011;59274;49.874;9.154;2023-08-06T10:32:03;2.22;;;1.00;;
71464;SDS011;59274;49.874;9.154;2023-08-06T10:37:20;0.90;;;0.90;;
71464;SDS011;59274;49.874;9.154;2023-08-06T10:39:50;1.10;;;0.90;;
71464;SDS011;59274;49.874;9.154;2023-08-06T10:42:26;1.15;;;0.90;;
71464;SDS011;59274;49.874;9.154;2023-08-06T10:47:41;1.67;;;0.90;;
71464;SDS011;59274;49.874;9.154;2023-08-06T10:50:07;1.05;;;0.85;;
71464;SDS011;59274;49.874;9.154;2023-08-06T10:52:41;1.73;;;1.10;;
71464;SDS011;59274;49.874;9.154;2023-08-06T10:55:07;1.90;;;0.70;;
71464;SDS011;59274;49.874;9.154;2023-08-06T10:57:34;1.05;;;0.95;;
71464;SDS011;59274;49.874;9.154;2023-08-06T10:59:59;1.00;;;0.80;;
71464;SDS011;59274;49.874;9.154;2023-08-06T11:02:25;1.10;;;1.00;;
71464;SDS011;59274;49.874;9.154;2023-08-06T11:04:54;1.10;;;1.00;;
71464;SDS011;59274;49.874;9.154;2023-08-06T11:07:19;0.82;;;0.70;;
71464;SDS011;59274;49.874;9.154;2023-08-06T11:09:49;1.30;;;1.00;;
71464;SDS011;59274;49.874;9.154;2023-08-06T11:12:18;0.80;;;0.80;;
71464;SDS011;59274;49.874;9.154;2023-08-06T11:14:49;1.02;;;0.95;;
71464;SDS011;59274;49.874;9.154;2023-08-06T11:17:15;1.38;;;0.80;;
71464;SDS011;59274;49.874;9.154;2023-08-06T11:19:40;1.57;;;0.80;;
71464;SDS011;59274;49.874;9.154;2023-08-06T11:22:06;1.00;;;0.80;;
71464;SDS011;59274;49.874;9.154;2023-08-06T11:24:31;1.07;;;0.97;;
71464;SDS011;59274;49.874;9.154;2023-08-06T11:26:57;1.13;;;0.90;;
71464;SDS011;59274;49.874;9.154;2023-08-06T11:29:22;2.55;;;0.88;;
71464;SDS011;59274;49.874;9.154;2023-08-06T11:31:49;1.00;;;0.70;;
71464;SDS011;59274;49.874;9.154;2023-08-06T11:34:14;1.73;;;0.70;;
71464;SDS011;59274;49.874;9.154;2023-08-06T11:36:41;2.30;;;0.80;;
71464;SDS011;59274;49.874;9.154;2023-08-06T11:39:07;0.88;;;0.70;;
71464;SDS011;59274;49.874;9.154;2023-08-06T11:41:35;2.67;;;0.97;;
71464;SDS011;59274;49.874;9.154;2023-08-06T11:44:03;1.45;;;1.00;;
71464;SDS011;59274;49.874;9.154;2023-08-06T11:46:28;1.30;;;0.90;;
71464;SDS011;59274;49.874;9.154;2023-08-06T11:48:54;2.20;;;0.90;;
71464;SDS011;59274;49.874;9.154;2023-08-06T11:51:27;1.00;;;0.80;;
71464;SDS011;59274;49.874;9.154;2023-08-06T11:53:56;1.67;;;0.98;;
71464;SDS011;59274;49.874;9.154;2023-08-06T11:56:23;1.20;;;1.08;;
71464;SDS011;59274;49.874;9.154;2023-08-06T11:58:49;1.95;;;1.10;;
71464;SDS011;59274;49.874;9.154;2023-08-06T12:01:15;1.40;;;1.00;;
71464;SDS011;59274;49.874;9.154;2023-08-06T12:03:40;0.75;;;0.70;;
71464;SDS011;59274;49.874;9.154;2023-08-06T12:06:06;1.10;;;0.90;;
71464;SDS011;59274;49.874;9.154;2023-08-06T12:08:34;1.15;;;0.80;;
71464;SDS011;59274;49.874;9.154;2023-08-06T12:11:00;1.40;;;0.77;;
71464;SDS011;59274;49.874;9.154;2023-08-06T12:13:26;2.33;;;0.60;;
71464;SDS011;59274;49.874;9.154;2023-08-06T12:15:51;1.30;;;0.70;;
71464;SDS011;59274;49.874;9.154;2023-08-06T12:18:19;1.30;;;0.73;;
71464;SDS011;59274;49.874;9.154;2023-08-06T12:20:44;1.02;;;0.80;;
71464;SDS011;59274;49.874;9.154;2023-08-06T12:23:10;3.17;;;0.80;;
71464;SDS011;59274;49.874;9.154;2023-08-06T12:25:40;0.90;;;0.57;;
71464;SDS011;59274;49.874;9.154;2023-08-06T12:28:05;0.63;;;0.57;;
71464;SDS011;59274;49.874;9.154;2023-08-06T12:30:32;0.77;;;0.70;;
71464;SDS011;59274;49.874;9.154;2023-08-06T12:32:57;0.60;;;0.60;;
71464;SDS011;59274;49.874;9.154;2023-08-06T12:35:22;0.70;;;0.70;;
71464;SDS011;59274;49.874;9.154;2023-08-06T12:37:48;0.80;;;0.80;;
71464;SDS011;59274;49.874;9.154;2023-08-06T12:40:13;0.63;;;0.50;;
71464;SDS011;59274;49.874;9.154;2023-08-06T12:42:39;0.70;;;0.70;;
71464;SDS011;59274;49.874;9.154;2023-08-06T12:45:04;1.10;;;0.50;;
71464;SDS011;59274;49.874;9.154;2023-08-06T12:47:30;1.67;;;0.80;;
71464;SDS011;59274;49.874;9.154;2023-08-06T12:49:56;1.37;;;0.90;;
71464;SDS011;59274;49.874;9.154;2023-08-06T12:52:21;1.57;;;0.70;;
71464;SDS011;59274;49.874;9.154;2023-08-06T12:54:47;1.17;;;0.80;;
71464;SDS011;59274;49.874;9.154;2023-08-06T12:57:12;1.10;;;0.90;;
71464;SDS011;59274;49.874;9.154;2023-08-06T12:59:38;1.00;;;0.90;;
71464;SDS011;59274;49.874;9.154;2023-08-06T13:02:04;1.85;;;0.90;;
71464;SDS011;59274;49.874;9.154;2023-08-06T13:04:30;1.67;;;0.77;;
71464;SDS011;59274;49.874;9.154;2023-08-06T13:06:56;2.80;;;1.00;;
71464;SDS011;59274;49.874;9.154;2023-08-06T13:09:21;3.35;;;1.13;;
71464;SDS011;59274;49.874;9.154;2023-08-06T13:11:46;1.30;;;0.83;;
71464;SDS011;59274;49.874;9.154;2023-08-06T13:14:15;1.02;;;0.93;;
71464;SDS011;59274;49.874;9.154;2023-08-06T13:16:41;1.90;;;0.90;;
71464;SDS011;59274;49.874;9.154;2023-08-06T13:19:08;1.27;;;0.80;;
71464;SDS011;59274;49.874;9.154;2023-08-06T13:24:03;1.42;;;0.70;;
71464;SDS011;59274;49.874;9.154;2023-08-06T13:26:29;1.10;;;0.82;;
71464;SDS011;59274;49.874;9.154;2023-08-06T13:28:54;2.53;;;1.10;;
71464;SDS011;59274;49.874;9.154;2023-08-06T13:31:21;1.45;;;1.10;;
71464;SDS011;59274;49.874;9.154;2023-08-06T13:33:46;1.10;;;0.90;;
71464;SDS011;59274;49.874;9.154;2023-08-06T13:36:13;5.47;;;1.17;;
71464;SDS011;59274;49.874;9.154;2023-08-06T13:38:38;2.60;;;1.10;;
71464;SDS011;59274;49.874;9.154;2023-08-06T13:41:04;3.70;;;1.30;;
71464;SDS011;59274;49.874;9.154;2023-08-06T13:43:30;1.93;;;0.93;;
71464;SDS011;59274;49.874;9.154;2023-08-06T13:45:56;3.45;;;0.90;;
71464;SDS011;59274;49.874;9.154;2023-08-06T13:48:21;2.00;;;1.30;;
71464;SDS011;59274;49.874;9.154;2023-08-06T13:50:46;4.53;;;1.10;;
71464;SDS011;59274;49.874;9.154;2023-08-06T13:53:12;2.33;;;1.17;;
71464;SDS011;59274;49.874;9.154;2023-08-06T13:55:37;2.50;;;1.30;;
71464;SDS011;59274;49.874;9.154;2023-08-06T13:58:03;2.78;;;1.10;;
71464;SDS011;59274;49.874;9.154;2023-08-06T14:00:28;5.00;;;1.20;;
71464;SDS011;59274;49.874;9.154;2023-08-06T14:02:53;2.10;;;1.00;;
71464;SDS011;59274;49.874;9.154;2023-08-06T14:05:19;2.63;;;1.30;;
71464;SDS011;59274;49.874;9.154;2023-08-06T14:07:45;1.87;;;1.30;;
71464;SDS011;59274;49.874;9.154;2023-08-06T14:10:13;2.70;;;1.20;;
71464;SDS011;59274;49.874;9.154;2023-08-06T14:12:39;3.50;;;1.20;;
71464;SDS011;59274;49.874;9.154;2023-08-06T14:15:04;2.47;;;1.20;;
71464;SDS011;59274;49.874;9.154;2023-08-06T14:17:30;2.58;;;1.00;;
71464;SDS011;59274;49.874;9.154;2023-08-06T14:19:56;3.17;;;1.10;;
71464;SDS011;59274;49.874;9.154;2023-08-06T14:22:22;2.37;;;1.20;;
71464;SDS011;59274;49.874;9.154;2023-08-06T14:24:47;3.40;;;1.25;;
71464;SDS011;59274;49.874;9.154;2023-08-06T14:27:13;2.50;;;1.07;;
71464;SDS011;59274;49.874;9.154;2023-08-06T14:29:38;1.43;;;0.93;;
71464;SDS011;59274;49.874;9.154;2023-08-06T14:32:03;1.85;;;0.90;;
71464;SDS011;59274;49.874;9.154;2023-08-06T14:34:29;2.90;;;1.00;;
71464;SDS011;59274;49.874;9.154;2023-08-06T14:36:55;1.27;;;0.93;;
71464;SDS011;59274;49.874;9.154;2023-08-06T14:39:20;1.95;;;1.10;;
71464;SDS011;59274;49.874;9.154;2023-08-06T14:41:45;2.67;;;1.20;;
71464;SDS011;59274;49.874;9.154;2023-08-06T14:44:12;2.35;;;0.90;;
71464;SDS011;59274;49.874;9.154;2023-08-06T14:46:37;1.17;;;0.80;;
71464;SDS011;59274;49.874;9.154;2023-08-06T14:49:03;1.57;;;0.80;;
71464;SDS011;59274;49.874;9.154;2023-08-06T14:51:28;2.63;;;0.80;;
71464;SDS011;59274;49.874;9.154;2023-08-06T14:53:54;1.75;;;1.00;;
71464;SDS011;59274;49.874;9.154;2023-08-06T14:56:19;2.27;;;0.87;;
71464;SDS011;59274;49.874;9.154;2023-08-06T14:58:44;1.73;;;0.90;;
71464;SDS011;59274;49.874;9.154;2023-08-06T15:01:10;1.50;;;1.00;;
71464;SDS011;59274;49.874;9.154;2023-08-06T15:03:35;1.90;;;0.90;;